Birmingham, AL

6:32 AM CDT on September 01, 2015 (GMT -0500)
UAB HHB | | Change Station
CLOSE
Current Station
Personal Weather Station
Location: Birmingham, AL
Elevation: 617 ft
Nearby Weather Stations

Elev 617 ft 33.50 °N, 86.81 °W | Updated 45 seconds ago

Clear
Clear
72.7 °F
Feels Like 70 °F
N
0.0
Wind Variable Wind from NE
Gusts 3.0 mph

Today
High -- | Low -- °F
--% Chance of Precip.
Yesterday
High -- | Low -- °F
Precip. -- in
6:21 AM 7:12 PM
Waning Gibbous, 89% visible
Pressure 30.11 in
Visibility 10.0 miles
Clouds Few 20000 ft
Heat Index 70 °F
Dew Point 70 °F
Humidity 90%
Rainfall 0.00 in
Snow Depth Not available.
UV 0 out of 12
Pollen 9.00 out of 12
Air Quality Not available.
Flu Activity Not available.
METAR KBHM 011053Z 00000KT 10SM FEW200 21/19 A3013 RMK AO2 SLP194 T02060194
Pressure 30.11 in
Visibility 10.0 miles
Clouds Few 20000 ft
Heat Index 70 °F
Dew Point 70 °F
Humidity 90%
Rainfall 0.00 in
Snow Depth Not available.
UV 0 out of 12
Pollen 9.00 out of 12
Air Quality Not available.
Flu Activity Not available.
METAR KBHM 011053Z 00000KT 10SM FEW200 21/19 A3013 RMK AO2 SLP194 T02060194

10-Day Weather Forecast

×

Almanac

Astronomy

Sep. 01, 2015 Rise Set
Actual Time
Civil Twilight
Nautical Twilight
Astronomical Twilight
Moon
Length of Visible Light
Length of Day
Tomorrow will be .
, % of the Moon is Illuminated

Today's Extremes

State Highs State Lows

Community

WunderPhotos

Upload Photos

1,851,501 photos uploaded!

WunderBlogs® & News

Nearby

Air Quality

  Air Quality AQ Index Pollutant
Not available.

Snow Depth

Station Depth Elevation

Earthquake Activity

City Distance Mag. Time & Date
Minimum magnitude displayed is 2.5.

Coastal Water Temperatures

Place Temperature

Stations

Nearby Weather Stations

Station Location Temp. Windchill Dew Point Humidity Wind Precip. Elev Updated Type